Time;durP1;ratioP1;P1;durP2;ratioP2;P2;SDS_P1;SDS_P2;PMS_P1;PMS_P2;Temp;Humidity;BMP_temperature;BMP_pressure;BME280_temperature;BME280_humidity;BME280_pressure;Samples;Min_cycle;Max_cycle;Signal;HPM_P1;HPM_P2
2021/08/29 00:01:01;;;;;;;9.27;5.32;;;14.70;99.90;;;;;;5044153;28;20045;-79
2021/08/29 00:03:28;;;;;;;6.95;4.95;;;14.70;99.90;;;;;;5042543;28;20041;-80
2021/08/29 00:05:54;;;;;;;6.40;4.85;;;14.70;99.90;;;;;;5035442;28;20099;-78
2021/08/29 00:08:22;;;;;;;5.70;5.10;;;14.70;99.90;;;;;;5045894;28;20083;-82
2021/08/29 00:10:49;;;;;;;7.00;4.93;;;14.80;99.90;;;;;;5039078;28;20057;-81
2021/08/29 00:13:16;;;;;;;6.75;4.95;;;14.80;99.90;;;;;;5043103;28;20163;-79
2021/08/29 00:15:43;;;;;;;5.65;4.55;;;14.80;99.90;;;;;;5056551;28;20037;-83
2021/08/29 00:18:09;;;;;;;6.32;4.47;;;14.80;99.90;;;;;;5058863;28;20120;-80
2021/08/29 00:20:36;;;;;;;7.30;5.10;;;14.80;99.90;;;;;;5041880;28;20461;-81
2021/08/29 00:23:03;;;;;;;6.07;4.68;;;14.80;99.90;;;;;;5052774;28;20099;-79
2021/08/29 00:25:32;;;;;;;6.68;4.07;;;14.80;99.90;;;;;;5055940;28;20563;-80
2021/08/29 00:27:58;;;;;;;5.20;4.70;;;14.80;99.90;;;;;;5058723;28;20075;-79
2021/08/29 00:30:25;;;;;;;5.85;4.60;;;14.90;99.90;;;;;;5052632;28;20045;-80
2021/08/29 00:32:52;;;;;;;5.97;4.28;;;14.90;99.90;;;;;;5040060;28;20049;-81
2021/08/29 00:35:19;;;;;;;5.85;3.95;;;14.90;99.90;;;;;;5043639;28;20104;-79
2021/08/29 00:37:46;;;;;;;6.18;4.80;;;14.90;99.90;;;;;;5062611;28;20049;-79
2021/08/29 00:40:14;;;;;;;5.47;4.10;;;14.90;99.90;;;;;;5047097;28;20453;-79
2021/08/29 00:42:43;;;;;;;4.30;3.90;;;15.00;99.90;;;;;;5046708;28;20099;-79
2021/08/29 00:45:10;;;;;;;5.32;4.40;;;15.00;99.90;;;;;;5064840;28;20091;-80
2021/08/29 00:47:38;;;;;;;5.43;3.95;;;15.00;99.90;;;;;;5060950;28;20067;-81
2021/08/29 00:50:05;;;;;;;4.60;4.20;;;15.00;99.90;;;;;;5065387;28;20041;-80
2021/08/29 00:52:34;;;;;;;4.32;3.40;;;14.90;99.90;;;;;;5064501;28;20075;-80
2021/08/29 00:55:01;;;;;;;5.55;4.00;;;14.90;99.90;;;;;;5063754;28;20056;-81
2021/08/29 00:57:27;;;;;;;5.63;3.95;;;14.90;99.90;;;;;;5062092;28;20041;-80
2021/08/29 00:59:55;;;;;;;5.03;3.97;;;14.90;99.90;;;;;;5040409;28;20090;-79
2021/08/29 01:02:26;;;;;;;4.90;4.05;;;15.00;99.90;;;;;;5041822;28;20099;-79
2021/08/29 01:05:01;;;;;;;4.47;3.92;;;15.00;99.90;;;;;;5057887;28;20051;-81
2021/08/29 01:07:33;;;;;;;5.88;3.78;;;14.90;99.90;;;;;;5056316;28;20045;-80
2021/08/29 01:10:04;;;;;;;4.40;3.25;;;14.90;99.90;;;;;;5058721;28;20053;-79
2021/08/29 01:12:31;;;;;;;4.30;3.80;;;14.90;99.90;;;;;;5049575;28;20049;-80
2021/08/29 01:15:02;;;;;;;3.95;3.28;;;14.90;99.90;;;;;;5040289;28;20370;-79
2021/08/29 01:17:31;;;;;;;4.82;3.45;;;14.90;99.90;;;;;;5055821;28;20049;-79
2021/08/29 01:20:03;;;;;;;4.32;3.65;;;15.00;99.90;;;;;;5039697;28;20552;-80
2021/08/29 01:22:31;;;;;;;3.78;3.15;;;15.00;99.90;;;;;;5060394;28;20045;-79
2021/08/29 01:24:58;;;;;;;4.80;3.60;;;15.00;99.90;;;;;;5060468;28;20123;-79
2021/08/29 01:27:33;;;;;;;4.13;3.47;;;15.00;99.90;;;;;;5060574;28;20041;-79
2021/08/29 01:30:02;;;;;;;6.47;4.32;;;15.00;99.90;;;;;;5062861;28;20044;-80
2021/08/29 01:32:29;;;;;;;8.00;4.35;;;14.90;99.90;;;;;;5061179;28;20107;-80
2021/08/29 01:34:56;;;;;;;5.70;3.72;;;14.90;99.90;;;;;;5063699;28;20497;-80
2021/08/29 01:37:24;;;;;;;3.60;3.30;;;14.90;99.90;;;;;;5054825;28;20037;-80
2021/08/29 01:39:51;;;;;;;15.85;4.38;;;14.90;99.90;;;;;;5042749;28;20045;-80
2021/08/29 01:42:19;;;;;;;4.05;3.50;;;15.00;99.90;;;;;;5059528;28;20045;-81
2021/08/29 01:44:47;;;;;;;4.93;3.35;;;15.00;99.90;;;;;;5059596;28;20053;-83
2021/08/29 01:47:18;;;;;;;3.17;2.85;;;15.00;99.90;;;;;;5047170;28;20045;-83
2021/08/29 01:49:45;;;;;;;3.47;3.17;;;15.00;99.90;;;;;;5056905;28;20056;-82
2021/08/29 01:52:13;;;;;;;3.63;3.33;;;15.00;99.90;;;;;;5057530;28;20045;-82
2021/08/29 01:54:40;;;;;;;4.32;3.55;;;15.00;99.90;;;;;;5048189;28;20080;-80
2021/08/29 01:57:12;;;;;;;4.07;3.53;;;15.10;99.90;;;;;;5051379;28;20071;-83
2021/08/29 01:59:39;;;;;;;4.53;3.33;;;15.00;99.90;;;;;;5040226;28;20457;-80
2021/08/29 02:02:07;;;;;;;3.40;3.10;;;14.90;99.90;;;;;;5054744;28;20049;-81
2021/08/29 02:04:35;;;;;;;5.80;4.30;;;14.90;99.90;;;;;;5060630;28;20053;-80
2021/08/29 02:07:10;;;;;;;6.60;3.55;;;14.90;99.90;;;;;;5060614;28;20049;-80
2021/08/29 02:09:40;;;;;;;5.10;3.75;;;14.90;99.90;;;;;;5058479;28;20498;-82
2021/08/29 02:12:09;;;;;;;5.13;4.63;;;14.90;99.90;;;;;;5059814;28;20060;-79
2021/08/29 02:14:44;;;;;;;5.75;4.20;;;14.90;99.90;;;;;;5041615;28;20140;-81
2021/08/29 02:17:11;;;;;;;4.45;4.05;;;14.90;99.90;;;;;;5036491;28;20045;-81
2021/08/29 02:19:40;;;;;;;5.00;3.60;;;14.90;99.90;;;;;;5036237;28;20064;-79
2021/08/29 02:22:07;;;;;;;6.53;4.85;;;15.00;99.90;;;;;;5055308;28;20504;-83
2021/08/29 02:24:34;;;;;;;6.53;3.47;;;15.00;99.90;;;;;;5055516;28;20052;-80
2021/08/29 02:27:01;;;;;;;4.55;3.55;;;15.00;99.90;;;;;;5046670;28;20049;-84
2021/08/29 02:29:29;;;;;;;4.00;3.42;;;15.00;99.90;;;;;;5035957;28;20060;-81
2021/08/29 02:31:56;;;;;;;3.38;3.08;;;14.90;99.90;;;;;;5036407;28;20644;-83
2021/08/29 02:34:23;;;;;;;4.25;3.40;;;14.90;99.90;;;;;;5050744;28;20049;-82
2021/08/29 02:36:54;;;;;;;4.57;3.33;;;14.90;99.90;;;;;;5055632;28;20091;-82
2021/08/29 02:39:21;;;;;;;4.60;3.13;;;14.90;99.90;;;;;;5054583;28;20110;-80
2021/08/29 02:41:50;;;;;;;3.72;3.28;;;14.90;99.90;;;;;;5036022;28;20049;-81
2021/08/29 02:44:19;;;;;;;4.05;3.38;;;14.90;99.90;;;;;;5052077;28;20135;-80
2021/08/29 02:46:48;;;;;;;4.30;3.88;;;14.90;99.90;;;;;;5054985;28;20052;-81
2021/08/29 02:49:16;;;;;;;4.22;3.83;;;14.90;99.90;;;;;;5070825;28;20102;-83
2021/08/29 02:51:42;;;;;;;4.38;3.10;;;14.90;99.90;;;;;;5058885;28;20041;-81
2021/08/29 02:54:13;;;;;;;3.08;2.63;;;14.80;99.90;;;;;;5054229;28;20037;-84
2021/08/29 02:56:41;;;;;;;3.65;3.08;;;14.90;99.90;;;;;;5050433;28;20512;-82
2021/08/29 02:59:08;;;;;;;3.63;3.17;;;14.90;99.90;;;;;;5056231;28;20095;-83
2021/08/29 03:01:35;;;;;;;4.28;2.67;;;14.90;99.90;;;;;;5055974;28;20048;-82
2021/08/29 03:04:03;;;;;;;3.85;3.13;;;14.90;99.90;;;;;;5043401;28;20041;-83
2021/08/29 03:06:30;;;;;;;5.43;2.83;;;14.90;99.90;;;;;;5035372;28;20064;-79
2021/08/29 03:08:57;;;;;;;3.20;2.90;;;14.90;99.90;;;;;;5046492;28;20056;-84
2021/08/29 03:11:25;;;;;;;4.25;3.38;;;15.00;99.90;;;;;;5058406;28;20068;-82
2021/08/29 03:13:53;;;;;;;3.83;2.78;;;15.00;99.90;;;;;;5049291;28;20544;-79
2021/08/29 03:16:19;;;;;;;3.03;2.72;;;15.00;99.90;;;;;;5048783;28;20053;-80
2021/08/29 03:18:47;;;;;;;4.90;3.42;;;15.00;99.90;;;;;;5035502;28;20057;-81
2021/08/29 03:21:14;;;;;;;3.58;2.53;;;15.00;99.90;;;;;;5049750;28;20090;-81
2021/08/29 03:23:43;;;;;;;2.95;2.58;;;15.00;99.90;;;;;;5057902;28;20103;-80
2021/08/29 03:26:10;;;;;;;2.40;2.03;;;15.10;99.90;;;;;;5061641;28;20072;-82
2021/08/29 03:28:38;;;;;;;2.55;2.30;;;15.10;99.90;;;;;;5059504;28;20049;-82
2021/08/29 03:31:05;;;;;;;2.35;2.05;;;15.10;99.90;;;;;;5038467;28;20053;-84
2021/08/29 03:33:34;;;;;;;3.67;2.83;;;15.00;99.90;;;;;;5050455;28;20544;-83
2021/08/29 03:36:02;;;;;;;2.78;1.98;;;15.00;99.90;;;;;;5044426;28;20513;-83
2021/08/29 03:38:32;;;;;;;1.48;1.38;;;14.90;99.90;;;;;;5041547;28;20461;-84
2021/08/29 03:41:00;;;;;;;1.52;1.17;;;14.90;99.90;;;;;;5034986;28;20045;-81
2021/08/29 03:43:27;;;;;;;1.45;1.35;;;14.90;99.90;;;;;;5048108;28;20045;-81
2021/08/29 03:45:56;;;;;;;2.00;1.50;;;14.90;99.90;;;;;;5040659;28;20071;-80
2021/08/29 03:48:23;;;;;;;1.55;1.38;;;14.90;99.90;;;;;;5038099;28;20042;-79
2021/08/29 03:50:50;;;;;;;1.90;1.20;;;14.90;99.90;;;;;;5049714;28;20075;-79
2021/08/29 03:53:18;;;;;;;2.05;1.80;;;14.90;99.90;;;;;;5056857;28;20506;-78
2021/08/29 03:55:45;;;;;;;1.38;1.25;;;14.80;99.90;;;;;;5056705;28;20041;-79
2021/08/29 03:58:12;;;;;;;1.58;1.30;;;14.80;99.90;;;;;;5057445;28;20052;-79
2021/08/29 04:00:41;;;;;;;1.70;1.60;;;14.80;99.90;;;;;;5055627;28;20044;-80
2021/08/29 04:03:09;;;;;;;1.30;1.20;;;14.80;99.90;;;;;;5054759;28;20078;-79
2021/08/29 04:05:39;;;;;;;2.78;1.10;;;14.80;99.90;;;;;;5057831;28;20049;-79
2021/08/29 04:08:11;;;;;;;1.90;1.20;;;14.80;99.90;;;;;;5042071;28;20099;-81
2021/08/29 04:10:41;;;;;;;1.77;1.52;;;14.80;99.90;;;;;;5045559;28;20046;-79
2021/08/29 04:13:08;;;;;;;1.63;1.30;;;14.70;99.90;;;;;;5043491;28;20044;-80
2021/08/29 04:15:38;;;;;;;2.00;1.73;;;14.70;99.90;;;;;;5052305;28;20090;-79
2021/08/29 04:18:06;;;;;;;2.20;1.73;;;14.70;99.90;;;;;;5046117;28;20103;-80
2021/08/29 04:20:34;;;;;;;2.00;1.52;;;14.70;99.90;;;;;;5054121;28;20041;-79
2021/08/29 04:23:01;;;;;;;1.92;1.83;;;14.80;99.90;;;;;;5036928;28;20065;-79
2021/08/29 04:25:29;;;;;;;1.67;1.58;;;14.80;99.90;;;;;;5033714;28;20049;-78
2021/08/29 04:27:56;;;;;;;2.28;2.08;;;14.80;99.90;;;;;;5035837;28;20092;-79
2021/08/29 04:30:23;;;;;;;1.95;1.75;;;14.80;99.90;;;;;;5053919;28;20107;-79
2021/08/29 04:32:52;;;;;;;1.65;1.35;;;14.80;99.90;;;;;;5053093;28;20148;-78
2021/08/29 04:35:19;;;;;;;2.13;1.52;;;14.80;99.90;;;;;;5053695;28;20079;-80
2021/08/29 04:37:47;;;;;;;2.72;1.73;;;14.80;99.90;;;;;;5055542;28;20091;-79
2021/08/29 04:40:14;;;;;;;2.33;1.90;;;14.80;99.90;;;;;;5061488;28;20064;-79
2021/08/29 04:42:41;;;;;;;2.45;1.88;;;14.80;99.90;;;;;;5063046;28;20041;-79
2021/08/29 04:45:08;;;;;;;2.70;2.03;;;14.70;99.90;;;;;;5044741;28;20111;-77
2021/08/29 04:47:35;;;;;;;2.60;1.80;;;14.70;99.90;;;;;;5044087;28;20087;-77
2021/08/29 04:50:02;;;;;;;3.38;2.55;;;14.70;99.90;;;;;;5060756;28;20139;-80
2021/08/29 04:52:30;;;;;;;2.22;1.60;;;14.70;99.90;;;;;;5055001;28;20049;-77
2021/08/29 04:54:58;;;;;;;3.75;2.38;;;14.70;99.90;;;;;;5060613;28;20087;-78
2021/08/29 04:57:25;;;;;;;3.58;2.25;;;14.70;99.90;;;;;;5061851;28;20057;-78
2021/08/29 04:59:51;;;;;;;2.58;1.92;;;14.70;99.90;;;;;;5041421;28;20054;-80
2021/08/29 05:02:18;;;;;;;3.78;2.10;;;14.70;99.90;;;;;;5057529;28;20102;-79
2021/08/29 05:04:44;;;;;;;2.38;1.90;;;14.80;99.90;;;;;;5041012;28;20045;-79
2021/08/29 05:07:11;;;;;;;1.88;1.40;;;14.80;99.90;;;;;;5038520;28;20080;-78
2021/08/29 05:09:38;;;;;;;3.20;1.80;;;14.80;99.90;;;;;;5052176;28;20048;-81
2021/08/29 05:12:07;;;;;;;2.20;2.00;;;14.70;99.90;;;;;;5038115;28;20050;-79
2021/08/29 05:14:33;;;;;;;2.88;1.75;;;14.70;99.90;;;;;;5053527;28;20040;-79
2021/08/29 05:17:00;;;;;;;3.58;2.35;;;14.70;99.90;;;;;;5056912;28;20048;-76
2021/08/29 05:19:27;;;;;;;3.47;2.35;;;14.60;99.90;;;;;;5056176;28;20053;-75
2021/08/29 05:21:53;;;;;;;2.55;1.60;;;14.60;99.90;;;;;;5044645;28;20095;-79
2021/08/29 05:24:20;;;;;;;2.35;1.77;;;14.70;99.90;;;;;;5055473;28;20045;-79
2021/08/29 05:26:46;;;;;;;1.88;1.67;;;14.70;99.90;;;;;;5044121;28;20251;-77
2021/08/29 05:29:14;;;;;;;1.98;1.60;;;14.60;99.90;;;;;;5043039;28;20103;-75
2021/08/29 05:31:41;;;;;;;2.70;1.67;;;14.70;99.90;;;;;;5055396;28;20114;-79
2021/08/29 05:34:07;;;;;;;3.28;1.90;;;14.60;99.90;;;;;;5058202;28;20114;-77
2021/08/29 05:36:34;;;;;;;2.15;1.50;;;14.70;99.90;;;;;;5056000;28;20053;-78
2021/08/29 05:39:01;;;;;;;2.17;1.50;;;14.70;99.90;;;;;;5053889;28;20075;-78
2021/08/29 05:41:27;;;;;;;2.58;1.58;;;14.70;99.90;;;;;;5055413;28;20106;-76
2021/08/29 05:43:54;;;;;;;3.25;1.33;;;14.70;99.90;;;;;;5044941;28;20049;-72
2021/08/29 05:46:22;;;;;;;2.13;1.92;;;14.70;99.90;;;;;;5036935;28;20065;-80
2021/08/29 05:48:50;;;;;;;2.97;1.95;;;14.80;99.90;;;;;;5052265;28;20049;-80
2021/08/29 05:51:17;;;;;;;2.42;2.00;;;14.80;99.90;;;;;;5057037;28;20468;-75
2021/08/29 05:53:43;;;;;;;3.42;2.63;;;14.80;99.90;;;;;;5048215;28;20052;-75
2021/08/29 05:56:10;;;;;;;17.98;8.52;;;14.80;99.90;;;;;;5052095;28;20074;-75
2021/08/29 05:58:37;;;;;;;4.22;3.17;;;14.70;99.90;;;;;;5047239;28;20046;-75
2021/08/29 06:01:03;;;;;;;8.65;4.05;;;14.70;99.90;;;;;;5034779;28;20517;-75
2021/08/29 06:03:31;;;;;;;5.53;2.38;;;14.60;99.90;;;;;;5041171;28;20098;-75
2021/08/29 06:05:58;;;;;;;3.53;2.28;;;14.60;99.90;;;;;;5053977;28;20087;-76
2021/08/29 06:08:25;;;;;;;3.33;2.17;;;14.60;99.90;;;;;;5053899;28;20099;-76
2021/08/29 06:10:51;;;;;;;4.28;2.53;;;14.70;99.90;;;;;;5053702;28;20489;-75
2021/08/29 06:13:18;;;;;;;2.75;2.30;;;14.70;99.90;;;;;;5053170;28;20041;-77
2021/08/29 06:15:44;;;;;;;3.53;2.78;;;14.70;99.90;;;;;;5055111;28;20053;-77
2021/08/29 06:18:11;;;;;;;3.67;2.67;;;14.70;99.90;;;;;;5051969;28;20045;-78
2021/08/29 06:20:39;;;;;;;4.05;2.53;;;14.70;99.90;;;;;;5053857;28;20099;-78
2021/08/29 06:23:05;;;;;;;3.97;2.22;;;14.70;99.90;;;;;;5049360;28;20046;-77
2021/08/29 06:25:32;;;;;;;4.25;2.78;;;14.70;99.90;;;;;;5054584;28;20048;-80
2021/08/29 06:27:59;;;;;;;3.92;2.53;;;14.70;99.90;;;;;;5053839;28;20045;-77
2021/08/29 06:30:26;;;;;;;3.72;2.65;;;14.70;99.90;;;;;;5056060;28;20045;-79
2021/08/29 06:32:52;;;;;;;4.40;2.78;;;14.80;99.90;;;;;;5055905;28;20053;-77
2021/08/29 06:35:19;;;;;;;3.08;2.38;;;14.80;99.90;;;;;;5055258;28;20044;-76
2021/08/29 06:37:47;;;;;;;3.53;2.88;;;14.80;99.90;;;;;;5053170;28;20460;-78
2021/08/29 06:40:14;;;;;;;3.63;2.78;;;14.80;99.90;;;;;;5032930;28;20072;-73
2021/08/29 06:42:42;;;;;;;3.67;2.45;;;14.80;99.90;;;;;;5033736;28;20072;-71
2021/08/29 06:45:09;;;;;;;3.35;2.72;;;14.80;99.90;;;;;;5044973;28;20041;-70
2021/08/29 06:47:36;;;;;;;3.97;3.13;;;14.90;99.90;;;;;;5039841;28;20041;-73
2021/08/29 06:50:03;;;;;;;4.03;2.38;;;14.90;99.90;;;;;;5052226;28;20091;-72
2021/08/29 06:52:29;;;;;;;5.28;2.10;;;15.00;99.90;;;;;;5033219;28;20041;-72
2021/08/29 06:54:57;;;;;;;2.55;2.25;;;15.10;99.90;;;;;;5051640;28;20075;-73
2021/08/29 06:57:27;;;;;;;4.82;3.63;;;15.10;99.90;;;;;;5052684;28;20079;-73
2021/08/29 06:59:53;;;;;;;2.75;2.05;;;15.10;99.90;;;;;;5052027;28;20137;-73
2021/08/29 07:02:21;;;;;;;2.50;2.08;;;15.10;99.90;;;;;;5052619;28;20075;-73
2021/08/29 07:04:48;;;;;;;3.72;2.25;;;15.20;99.90;;;;;;5052567;28;20056;-73
2021/08/29 07:07:15;;;;;;;2.72;2.15;;;15.30;99.90;;;;;;5052586;28;20049;-73
2021/08/29 07:09:42;;;;;;;2.33;2.13;;;15.30;99.90;;;;;;5051767;28;20417;-73
2021/08/29 07:12:11;;;;;;;2.75;2.15;;;15.40;99.90;;;;;;5045773;28;20114;-72
2021/08/29 07:14:38;;;;;;;3.10;2.15;;;15.40;99.90;;;;;;5032622;28;20046;-73
2021/08/29 07:17:05;;;;;;;1.92;1.73;;;15.40;99.90;;;;;;5032825;28;20050;-73
2021/08/29 07:19:32;;;;;;;3.80;1.95;;;15.40;99.90;;;;;;5032141;28;20049;-74
2021/08/29 07:21:58;;;;;;;2.55;2.28;;;15.40;99.90;;;;;;5032636;28;20099;-74
2021/08/29 07:24:25;;;;;;;3.05;2.08;;;15.40;99.90;;;;;;5048788;28;20071;-73
2021/08/29 07:26:52;;;;;;;1.88;1.70;;;15.50;99.90;;;;;;5052408;28;20049;-73
2021/08/29 07:29:20;;;;;;;2.05;1.85;;;15.40;99.90;;;;;;5051513;28;20048;-73
2021/08/29 07:31:46;;;;;;;1.88;1.40;;;15.40;99.90;;;;;;5052287;28;20543;-74
2021/08/29 07:34:13;;;;;;;6.65;1.90;;;15.50;99.90;;;;;;5052247;28;20049;-73
2021/08/29 07:36:39;;;;;;;2.42;1.70;;;15.50;99.90;;;;;;5052188;28;20049;-72
2021/08/29 07:39:06;;;;;;;2.60;1.98;;;15.50;99.90;;;;;;5051276;28;20456;-73
2021/08/29 07:41:32;;;;;;;2.20;1.52;;;15.50;99.90;;;;;;5051965;28;20091;-73
2021/08/29 07:43:59;;;;;;;2.50;2.22;;;15.60;99.90;;;;;;5051900;28;20048;-74
2021/08/29 07:46:29;;;;;;;1.85;1.48;;;15.60;99.90;;;;;;5052777;28;20171;-73
2021/08/29 07:48:56;;;;;;;2.00;1.55;;;15.70;99.90;;;;;;5052269;28;20049;-73
2021/08/29 07:51:22;;;;;;;3.08;1.85;;;15.90;99.90;;;;;;5052232;28;20134;-73
2021/08/29 07:53:49;;;;;;;3.70;1.23;;;16.00;99.90;;;;;;5052625;28;20045;-73
2021/08/29 07:56:15;;;;;;;2.25;1.55;;;16.10;99.90;;;;;;5058318;28;20057;-73
2021/08/29 07:58:42;;;;;;;2.38;1.63;;;16.10;99.90;;;;;;5051138;28;20480;-73
2021/08/29 08:01:09;;;;;;;2.38;2.15;;;16.20;99.90;;;;;;5052015;28;20052;-72
2021/08/29 08:03:37;;;;;;;8.18;4.63;;;16.40;99.90;;;;;;5052231;28;20460;-74
2021/08/29 08:06:04;;;;;;;4.35;2.78;;;16.50;99.90;;;;;;5052198;28;20508;-73
2021/08/29 08:08:31;;;;;;;17.63;10.25;;;16.80;99.90;;;;;;5043893;28;20046;-74
2021/08/29 08:10:58;;;;;;;3.67;2.72;;;16.90;99.90;;;;;;5032452;28;20088;-73
2021/08/29 08:13:24;;;;;;;10.93;6.55;;;16.90;99.90;;;;;;5031925;28;20482;-73
2021/08/29 08:15:51;;;;;;;22.10;12.48;;;17.10;99.90;;;;;;5031407;28;20498;-73
2021/08/29 08:18:18;;;;;;;24.65;13.35;;;17.30;99.90;;;;;;5044439;28;20060;-73
2021/08/29 08:20:46;;;;;;;4.35;2.80;;;17.30;99.90;;;;;;5046541;28;20115;-73
2021/08/29 08:23:12;;;;;;;24.58;13.48;;;17.40;99.90;;;;;;5043334;28;20049;-73
2021/08/29 08:25:39;;;;;;;75.00;36.60;;;17.50;99.90;;;;;;5051216;28;20045;-73
2021/08/29 08:28:06;;;;;;;6.93;3.35;;;17.50;99.90;;;;;;5051347;28;20542;-73
2021/08/29 08:30:33;;;;;;;7.28;4.15;;;17.40;99.90;;;;;;5050463;28;20049;-73
2021/08/29 08:32:59;;;;;;;9.35;5.32;;;17.60;99.90;;;;;;5050881;28;20041;-74
2021/08/29 08:35:26;;;;;;;3.67;2.80;;;17.80;99.90;;;;;;5051124;28;20076;-73
2021/08/29 08:37:54;;;;;;;4.35;2.22;;;18.10;99.90;;;;;;5053517;28;20103;-73
2021/08/29 08:40:21;;;;;;;5.00;4.47;;;18.20;99.90;;;;;;5054756;28;20555;-73
2021/08/29 08:42:48;;;;;;;10.50;7.28;;;18.30;99.90;;;;;;5054911;28;20053;-72
2021/08/29 08:45:15;;;;;;;4.47;3.22;;;18.30;99.90;;;;;;5055144;28;20041;-72
2021/08/29 08:47:43;;;;;;;16.58;10.73;;;18.30;99.90;;;;;;5054966;28;20091;-72
2021/08/29 08:50:12;;;;;;;5.50;3.65;;;18.50;99.90;;;;;;5053504;28;20057;-73
2021/08/29 08:52:40;;;;;;;4.90;3.60;;;18.40;99.90;;;;;;5054800;28;20045;-72
2021/08/29 08:55:09;;;;;;;2.63;1.92;;;18.40;99.90;;;;;;5055445;28;20048;-72
2021/08/29 08:57:40;;;;;;;5.40;4.18;;;18.40;99.90;;;;;;5054491;28;20498;-73
2021/08/29 09:00:07;;;;;;;23.38;15.52;;;18.50;99.90;;;;;;5054665;28;20045;-73
2021/08/29 09:02:34;;;;;;;10.90;7.25;;;18.60;99.90;;;;;;5054692;28;20558;-72
2021/08/29 09:05:01;;;;;;;4.30;3.47;;;18.40;99.90;;;;;;5054553;28;20535;-73
2021/08/29 09:07:28;;;;;;;6.32;3.97;;;18.30;99.90;;;;;;5053764;28;20041;-72
2021/08/29 09:09:54;;;;;;;3.85;2.50;;;18.20;99.90;;;;;;5034627;28;20049;-72
2021/08/29 09:12:22;;;;;;;2.40;2.08;;;18.10;99.90;;;;;;5035003;28;20099;-74
2021/08/29 09:14:51;;;;;;;2.00;1.90;;;18.20;99.90;;;;;;5035116;28;20441;-72
2021/08/29 09:17:26;;;;;;;3.22;2.92;;;18.10;99.90;;;;;;5044125;28;20049;-73
2021/08/29 09:20:14;;;;;;;8.13;6.32;;;18.10;99.90;;;;;;5053922;28;20452;-73
2021/08/29 09:22:41;;;;;;;7.90;5.40;;;18.10;99.90;;;;;;5054806;28;20049;-73
2021/08/29 09:25:12;;;;;;;10.65;7.28;;;18.20;99.90;;;;;;5054662;28;20047;-73
2021/08/29 09:27:42;;;;;;;7.30;5.03;;;18.20;99.90;;;;;;5054397;28;20118;-73
2021/08/29 09:30:10;;;;;;;8.57;5.78;;;18.40;99.90;;;;;;5052936;28;20563;-72
2021/08/29 09:32:50;;;;;;;14.63;8.68;;;18.40;99.90;;;;;;5053842;28;20094;-72
2021/08/29 09:35:17;;;;;;;8.15;6.07;;;18.50;99.90;;;;;;5054667;28;20052;-73
2021/08/29 09:37:44;;;;;;;5.30;3.75;;;18.50;99.90;;;;;;5054961;28;20055;-74
2021/08/29 09:40:20;;;;;;;5.65;2.85;;;18.40;99.90;;;;;;5054124;28;20075;-72
2021/08/29 09:42:49;;;;;;;9.50;5.75;;;18.50;99.90;;;;;;5054815;28;20063;-74
2021/08/29 09:45:27;;;;;;;28.55;16.40;;;18.60;99.90;;;;;;5054838;28;20091;-72
2021/08/29 09:47:58;;;;;;;11.35;8.32;;;18.80;99.90;;;;;;5055147;28;20053;-75
2021/08/29 09:50:26;;;;;;;6.55;3.83;;;18.90;99.90;;;;;;5054713;28;20577;-72
2021/08/29 09:53:06;;;;;;;2.72;1.83;;;19.00;99.90;;;;;;5053531;28;20091;-73
2021/08/29 09:55:34;;;;;;;4.43;2.80;;;19.00;99.90;;;;;;5054042;28;20041;-74
2021/08/29 09:58:20;;;;;;;2.45;2.00;;;18.60;99.90;;;;;;5052906;28;20045;-73
2021/08/29 10:01:02;;;;;;;2.28;2.08;;;18.50;99.90;;;;;;5037265;28;20049;-73
2021/08/29 10:03:29;;;;;;;3.13;1.95;;;18.70;99.90;;;;;;5035110;28;20132;-73
2021/08/29 10:06:17;;;;;;;12.35;7.80;;;18.90;99.90;;;;;;5035311;28;20049;-71
2021/08/29 10:08:46;;;;;;;7.40;5.03;;;19.50;99.90;;;;;;5033300;28;20095;-72
2021/08/29 10:11:13;;;;;;;6.65;4.25;;;20.10;99.90;;;;;;5033610;28;20045;-72
2021/08/29 10:13:42;;;;;;;7.97;4.40;;;20.70;99.90;;;;;;5033652;28;20506;-74
2021/08/29 10:16:09;;;;;;;2.45;1.52;;;20.50;99.90;;;;;;5049653;28;20048;-73
2021/08/29 10:18:38;;;;;;;9.13;4.82;;;20.20;99.90;;;;;;5050670;28;20456;-72
2021/08/29 10:21:06;;;;;;;5.47;2.83;;;20.30;99.90;;;;;;5033197;28;20200;-73
2021/08/29 10:23:32;;;;;;;6.30;4.20;;;20.20;99.90;;;;;;5033410;28;20050;-73
2021/08/29 10:26:00;;;;;;;5.60;3.53;;;20.30;99.90;;;;;;5033228;28;20045;-72
2021/08/29 10:28:29;;;;;;;1.90;1.48;;;20.20;99.90;;;;;;5036462;28;20115;-72
2021/08/29 10:30:59;;;;;;;9.82;5.00;;;19.60;99.90;;;;;;5043709;28;20456;-72
2021/08/29 10:33:27;;;;;;;1.45;1.35;;;20.00;99.90;;;;;;5052368;28;20095;-73
2021/08/29 10:35:55;;;;;;;3.00;1.55;;;20.10;99.90;;;;;;5053082;28;20045;-73
2021/08/29 10:38:22;;;;;;;2.40;1.80;;;20.40;99.90;;;;;;5052763;28;20098;-73
2021/08/29 10:40:50;;;;;;;1.20;1.10;;;20.60;99.90;;;;;;5053618;28;20052;-71
2021/08/29 10:43:18;;;;;;;1.58;1.00;;;21.50;99.90;;;;;;5055196;28;20048;-71
2021/08/29 10:45:44;;;;;;;1.45;1.20;;;22.30;99.90;;;;;;5053062;28;20041;-72
2021/08/29 10:48:16;;;;;;;1.08;0.98;;;23.70;99.90;;;;;;5043628;28;20117;-72
2021/08/29 10:50:46;;;;;;;;;;;25.20;99.90;;;;;;5033824;28;20114;-72
2021/08/29 10:53:33;;;;;;;1.02;0.85;;;27.00;99.90;;;;;;5032796;28;19921;-73
2021/08/29 10:56:29;;;;;;;1.40;0.88;;;27.80;96.20;;;;;;5051809;28;20041;-72
2021/08/29 10:59:21;;;;;;;0.82;0.82;;;27.20;93.80;;;;;;5038488;28;20049;-72
2021/08/29 11:01:48;;;;;;;0.45;0.43;;;26.20;94.70;;;;;;5052747;28;20049;-74
2021/08/29 11:04:45;;;;;;;0.80;0.80;;;25.20;96.30;;;;;;5053320;28;20041;-72
2021/08/29 11:07:11;;;;;;;0.77;0.77;;;25.40;97.30;;;;;;5053471;28;20049;-74
2021/08/29 11:09:45;;;;;;;2.83;1.65;;;27.00;97.00;;;;;;5053088;28;20057;-74
2021/08/29 11:12:30;;;;;;;0.55;0.52;;;28.30;95.00;;;;;;5053443;28;20045;-73
2021/08/29 11:14:59;;;;;;;0.75;0.50;;;28.20;90.60;;;;;;5053214;28;20095;-73
2021/08/29 11:17:27;;;;;;;0.95;0.50;;;26.90;89.10;;;;;;5057927;28;20049;-71
2021/08/29 11:20:08;;;;;;;0.60;0.50;;;26.30;90.30;;;;;;5053342;28;20048;-73
2021/08/29 11:22:38;;;;;;;0.45;0.45;;;28.10;87.40;;;;;;5052144;28;20049;-73
2021/08/29 11:25:13;;;;;;;0.60;0.60;;;28.40;80.30;;;;;;5052261;28;20044;-73
2021/08/29 11:27:57;;;;;;;0.50;0.50;;;28.00;83.20;;;;;;5034356;28;20478;-73
2021/08/29 11:30:26;;;;;;;0.68;0.68;;;27.50;83.10;;;;;;5037975;28;20429;-73
2021/08/29 11:33:00;;;;;;;1.65;0.43;;;26.80;85.40;;;;;;5052020;28;20094;-73
2021/08/29 11:35:30;;;;;;;0.52;0.50;;;26.00;87.30;;;;;;5051795;28;20037;-72
2021/08/29 11:38:05;;;;;;;0.73;0.65;;;25.40;90.30;;;;;;5052038;28;20099;-74
2021/08/29 11:40:56;;;;;;;0.70;0.70;;;25.10;92.20;;;;;;5051363;28;20090;-73
2021/08/29 11:43:40;;;;;;;0.73;0.73;;;24.90;90.90;;;;;;5051842;28;20068;-73
2021/08/29 11:46:12;;;;;;;0.50;0.50;;;24.90;94.60;;;;;;5052032;28;20049;-71
2021/08/29 11:48:47;;;;;;;;;;;25.20;92.40;;;;;;5051714;28;20114;-70
2021/08/29 11:51:15;;;;;;;0.70;0.55;;;24.70;93.70;;;;;;5051408;28;19920;-71
2021/08/29 11:53:43;;;;;;;1.17;0.77;;;24.50;95.50;;;;;;5050985;28;20107;-72
2021/08/29 11:56:10;;;;;;;2.00;1.80;;;24.40;95.00;;;;;;5051844;28;20053;-71
2021/08/29 11:58:36;;;;;;;0.80;0.80;;;24.50;94.90;;;;;;5051074;28;20106;-72
2021/08/29 12:01:05;;;;;;;0.80;0.60;;;24.40;93.00;;;;;;5051542;28;20099;-73
2021/08/29 12:03:33;;;;;;;0.47;0.40;;;24.40;93.40;;;;;;5051434;28;20041;-72
2021/08/29 12:06:05;;;;;;;0.82;0.70;;;24.90;93.00;;;;;;5051073;28;20095;-73
2021/08/29 12:08:39;;;;;;;0.98;0.60;;;25.30;92.30;;;;;;5050844;28;20136;-73
2021/08/29 12:11:07;;;;;;;1.00;0.82;;;25.40;92.40;;;;;;5051004;28;20049;-72
2021/08/29 12:13:33;;;;;;;1.73;0.82;;;24.90;93.70;;;;;;5051278;28;20049;-72
2021/08/29 12:16:03;;;;;;;0.60;0.55;;;24.50;95.30;;;;;;5051478;28;20045;-72
2021/08/29 12:18:35;;;;;;;2.10;0.60;;;24.20;96.60;;;;;;5051292;28;20106;-72
2021/08/29 12:21:04;;;;;;;1.10;0.68;;;23.80;99.90;;;;;;5051108;28;20053;-71
2021/08/29 12:23:31;;;;;;;0.40;0.40;;;23.10;99.90;;;;;;5036659;28;20045;-72
2021/08/29 12:26:00;;;;;;;1.40;0.80;;;22.50;99.90;;;;;;5037173;28;20044;-72
2021/08/29 12:28:27;;;;;;;0.85;0.75;;;22.20;99.90;;;;;;5036786;28;20041;-72
2021/08/29 12:30:55;;;;;;;1.17;1.08;;;21.80;99.90;;;;;;5048774;28;20048;-71
2021/08/29 12:33:22;;;;;;;1.33;0.85;;;21.40;99.90;;;;;;5051034;28;20056;-72
2021/08/29 12:35:49;;;;;;;1.08;0.98;;;21.20;99.90;;;;;;5051284;28;20106;-73
2021/08/29 12:38:17;;;;;;;1.17;0.60;;;21.00;99.90;;;;;;5050839;28;20056;-71
2021/08/29 12:40:44;;;;;;;0.68;0.60;;;20.90;99.90;;;;;;5051076;28;20128;-72
2021/08/29 12:43:12;;;;;;;0.60;0.60;;;20.90;99.90;;;;;;5051234;28;20041;-73
2021/08/29 12:45:39;;;;;;;1.00;0.90;;;20.80;99.90;;;;;;5050818;28;20041;-73
2021/08/29 12:48:06;;;;;;;1.05;0.80;;;20.60;99.90;;;;;;5050997;28;20041;-72
2021/08/29 12:50:37;;;;;;;1.02;0.90;;;20.40;99.90;;;;;;5050346;28;20041;-73
2021/08/29 12:53:07;;;;;;;0.60;0.60;;;20.20;99.90;;;;;;5054330;28;20049;-73